Time;durP1;ratioP1;P1;durP2;ratioP2;P2;SDS_P1;SDS_P2;PMS_P1;PMS_P2;Temp;Humidity;BMP_temperature;BMP_pressure;BME280_temperature;BME280_humidity;BME280_pressure;Samples;Min_cycle;Max_cycle;Signal;HPM_P1;HPM_P2
2022/01/18 00:00:56;;;;;;;0.20;0.10;;;;;;;6.71;100.00;102209.25;5067763;28;20455;-54
2022/01/18 00:03:24;;;;;;;0.30;0.20;;;;;;;6.63;100.00;102206.47;5066864;28;20452;-54
2022/01/18 00:05:51;;;;;;;0.20;0.20;;;;;;;6.70;100.00;102207.47;5062580;28;20453;-54
2022/01/18 00:08:18;;;;;;;0.20;0.20;;;;;;;6.86;100.00;102206.03;5060995;28;20584;-54
2022/01/18 00:10:45;;;;;;;0.20;0.20;;;;;;;6.88;100.00;102214.88;5066891;28;20496;-54
2022/01/18 00:13:35;;;;;;;0.20;0.17;;;;;;;6.95;100.00;102214.09;5061477;28;20465;-54
2022/01/18 00:18:34;;;;;;;0.20;0.10;;;;;;;7.07;100.00;102215.19;5072507;28;20489;-54
2022/01/18 00:23:48;;;;;;;0.20;0.10;;;;;;;6.98;100.00;102228.25;5067798;28;20455;-54
2022/01/18 00:26:17;;;;;;;0.20;0.20;;;;;;;6.96;100.00;102223.78;5064654;28;20446;-54
2022/01/18 00:28:50;;;;;;;0.20;0.10;;;;;;;6.78;100.00;102234.94;5060398;28;20546;-54
2022/01/18 00:33:57;;;;;;;0.20;0.20;;;;;;;6.60;100.00;102235.50;5060718;28;20457;-54
2022/01/18 00:36:35;;;;;;;0.20;0.10;;;;;;;6.67;100.00;102249.69;5060927;28;20500;-54
2022/01/18 00:39:05;;;;;;;0.60;0.60;;;;;;;6.68;100.00;102236.50;5064472;28;20498;-54
2022/01/18 00:41:32;;;;;;;0.20;0.10;;;;;;;6.61;100.00;102239.03;5067032;28;20442;-54
2022/01/18 00:43:59;;;;;;;0.20;0.10;;;;;;;6.71;100.00;102243.59;5064303;28;20476;-54
2022/01/18 00:46:26;;;;;;;0.20;0.17;;;;;;;6.56;100.00;102243.31;5060565;28;20456;-54
2022/01/18 00:48:55;;;;;;;0.20;0.20;;;;;;;6.56;100.00;102252.13;5065635;28;20477;-54
2022/01/18 00:51:22;;;;;;;0.20;0.10;;;;;;;6.55;100.00;102245.06;5060275;28;20446;-54
2022/01/18 00:53:49;;;;;;;0.20;0.10;;;;;;;6.57;100.00;102245.09;5062666;28;20457;-54
2022/01/18 00:56:21;;;;;;;0.20;0.10;;;;;;;6.57;100.00;102250.38;5067169;28;20477;-54
2022/01/18 00:58:51;;;;;;;0.20;0.20;;;;;;;6.78;100.00;102250.81;5065917;28;20524;-54
2022/01/18 01:01:21;;;;;;;0.20;0.10;;;;;;;7.08;100.00;102246.06;5060156;28;20446;-54
2022/01/18 01:03:49;;;;;;;0.20;0.10;;;;;;;7.21;100.00;102249.78;5060466;28;20450;-54
2022/01/18 01:06:16;;;;;;;0.20;0.20;;;;;;;7.19;100.00;102258.56;5047208;28;20446;-54
2022/01/18 01:08:43;;;;;;;0.20;0.20;;;;;;;7.27;100.00;102249.91;5059786;28;20471;-54
2022/01/18 01:11:11;;;;;;;0.20;0.10;;;;;;;7.35;100.00;102250.03;5066797;28;20446;-54
2022/01/18 01:13:44;;;;;;;0.20;0.20;;;;;;;7.37;100.00;102254.47;5061341;28;20928;-54
2022/01/18 01:19:22;;;;;;;0.20;0.13;;;;;;;7.73;100.00;102263.84;5066195;28;20503;-54
2022/01/18 01:46:29;;;;;;;0.20;0.20;;;;;;;7.56;100.00;102268.91;5065653;28;20468;-54
2022/01/18 01:48:58;;;;;;;0.20;0.10;;;;;;;7.49;100.00;102268.78;5062459;28;20469;-55
2022/01/18 01:51:30;;;;;;;0.20;0.20;;;;;;;7.52;100.00;102264.41;5066303;28;20442;-55
2022/01/18 01:54:02;;;;;;;0.20;0.20;;;;;;;7.49;100.00;102272.31;5065349;28;20481;-55
2022/01/18 01:56:30;;;;;;;0.30;0.20;;;;;;;7.41;100.00;102266.00;5065757;28;20443;-55
2022/01/18 01:58:57;;;;;;;0.20;0.20;;;;;;;7.45;100.00;102262.53;5061509;28;20519;-55
2022/01/18 02:01:24;;;;;;;0.30;0.20;;;;;;;7.65;100.00;102268.13;5058826;28;20473;-55
2022/01/18 02:03:51;;;;;;;0.20;0.13;;;;;;;7.61;100.00;102255.72;5063795;28;20446;-55
2022/01/18 02:06:18;;;;;;;0.20;0.20;;;;;;;7.52;100.00;102264.41;5065784;28;20489;-55
2022/01/18 02:08:45;;;;;;;0.20;0.20;;;;;;;7.53;100.00;102257.34;5050611;28;20498;-55
2022/01/18 02:11:12;;;;;;;0.30;0.20;;;;;;;7.46;100.00;102258.13;5050525;28;20451;-55
2022/01/18 02:13:40;;;;;;;0.20;0.10;;;;;;;7.26;100.00;102256.03;5063024;28;20496;-54
2022/01/18 02:24:10;;;;;;;0.20;0.17;;;;;;;7.01;100.00;102256.50;5065865;28;20493;-55
2022/01/18 02:26:36;;;;;;;0.20;0.10;;;;;;;6.88;100.00;102250.13;5063441;28;20450;-55
2022/01/18 02:29:05;;;;;;;0.30;0.20;;;;;;;6.94;100.00;102244.91;5058600;28;20515;-55
2022/01/18 02:31:33;;;;;;;0.20;0.20;;;;;;;7.09;100.00;102246.94;5060460;28;20450;-55
2022/01/18 02:34:03;;;;;;;0.20;0.20;;;;;;;7.29;100.00;102256.13;5065476;28;20496;-55
2022/01/18 02:36:31;;;;;;;0.20;0.20;;;;;;;7.48;100.00;102249.34;5065010;28;20963;-55
2022/01/18 02:38:58;;;;;;;0.20;0.20;;;;;;;7.41;100.00;102237.81;5058325;28;20497;-55
2022/01/18 02:41:29;;;;;;;0.30;0.30;;;;;;;7.33;100.00;102242.06;5058979;28;20493;-55
2022/01/18 02:44:01;;;;;;;0.20;0.10;;;;;;;7.11;100.00;102246.09;5047216;28;20496;-54
2022/01/18 02:46:28;;;;;;;0.20;0.10;;;;;;;6.87;100.00;102256.25;5059003;28;20458;-55
2022/01/18 02:48:57;;;;;;;0.20;0.10;;;;;;;6.87;100.00;102250.97;5063742;28;20463;-55
2022/01/18 02:51:25;;;;;;;0.20;0.20;;;;;;;6.94;100.00;102252.84;5066487;28;20449;-55
2022/01/18 02:54:02;;;;;;;0.20;0.20;;;;;;;7.02;100.00;102253.88;5065353;28;20446;-55
2022/01/18 02:56:35;;;;;;;0.20;0.20;;;;;;;7.10;100.00;102249.59;5062544;28;21007;-55
2022/01/18 02:59:14;;;;;;;0.20;0.20;;;;;;;7.10;100.00;102243.44;5064284;28;20554;-55
2022/01/18 03:04:26;;;;;;;0.20;0.10;;;;;;;6.87;100.00;102250.97;5069350;28;20860;-55
2022/01/18 03:06:53;;;;;;;0.20;0.10;;;;;;;6.78;100.00;102261.38;5065044;28;20507;-55
2022/01/18 03:09:19;;;;;;;0.20;0.20;;;;;;;6.79;100.00;102258.75;5062122;28;21034;-55
2022/01/18 03:11:46;;;;;;;0.20;0.20;;;;;;;6.65;100.00;102254.06;5066703;28;20446;-55
2022/01/18 03:14:13;;;;;;;0.20;0.20;;;;;;;6.61;100.00;102254.88;5069058;28;20454;-55
2022/01/18 03:16:40;;;;;;;0.30;0.30;;;;;;;6.63;100.00;102259.34;5065171;28;20450;-55
2022/01/18 03:19:06;;;;;;;0.20;0.20;;;;;;;6.64;100.00;102263.75;5061748;28;20498;-55
2022/01/18 03:21:33;;;;;;;0.20;0.13;;;;;;;6.70;100.00;102257.69;5066007;28;20952;-55
2022/01/18 03:24:13;;;;;;;0.20;0.20;;;;;;;6.73;100.00;102258.66;5068545;28;20940;-55
2022/01/18 03:29:27;;;;;;;0.20;0.20;;;;;;;6.70;100.00;102270.88;5068174;28;20470;-55
2022/01/18 03:31:54;;;;;;;0.20;0.10;;;;;;;6.67;100.00;102261.16;5068699;28;20563;-55
2022/01/18 03:34:21;;;;;;;0.30;0.20;;;;;;;6.75;100.00;102270.13;5063080;28;20446;-55
2022/01/18 03:36:48;;;;;;;0.20;0.10;;;;;;;6.62;100.00;102273.41;5061785;28;20508;-55
2022/01/18 03:39:15;;;;;;;0.63;0.63;;;;;;;6.61;100.00;102271.63;5064354;28;20583;-54
2022/01/18 03:41:41;;;;;;;0.20;0.13;;;;;;;6.53;100.00;102278.50;5068668;28;20446;-55
2022/01/18 03:44:08;;;;;;;0.30;0.20;;;;;;;6.34;100.00;102277.25;5063361;28;20457;-54
2022/01/18 03:46:37;;;;;;;0.20;0.10;;;;;;;6.28;100.00;102278.84;5061571;28;20473;-55
2022/01/18 03:49:05;;;;;;;0.20;0.10;;;;;;;6.25;100.00;102274.41;5066097;28;20838;-55
2022/01/18 03:51:32;;;;;;;0.20;0.10;;;;;;;6.18;100.00;102275.13;5068497;28;20495;-55
2022/01/18 03:53:59;;;;;;;0.20;0.20;;;;;;;6.20;100.00;102278.69;5064209;28;20450;-54
2022/01/18 03:56:27;;;;;;;0.20;0.20;;;;;;;6.24;100.00;102286.72;5061250;28;20451;-54
2022/01/18 03:58:53;;;;;;;0.50;0.50;;;;;;;6.25;100.00;102277.03;5065194;28;20522;-55
2022/01/18 04:01:20;;;;;;;0.20;0.10;;;;;;;6.24;100.00;102292.00;5068094;28;20512;-54
2022/01/18 04:03:51;;;;;;;0.20;0.10;;;;;;;6.27;100.00;102290.28;5064847;28;20477;-55
2022/01/18 04:06:18;;;;;;;0.20;0.17;;;;;;;6.25;100.00;102290.25;5061645;28;20611;-54
2022/01/18 04:08:44;;;;;;;0.20;0.10;;;;;;;6.23;100.00;102284.94;5063717;28;20466;-54
2022/01/18 04:11:11;;;;;;;0.20;0.10;;;;;;;6.20;100.00;102284.88;5067976;28;20457;-55
2022/01/18 04:13:38;;;;;;;0.30;0.20;;;;;;;6.24;100.00;102291.09;5065686;28;21001;-55
2022/01/18 04:16:05;;;;;;;0.20;0.20;;;;;;;6.21;100.00;102289.28;5061056;28;20446;-55
2022/01/18 04:18:47;;;;;;;0.20;0.20;;;;;;;6.19;100.00;102285.72;5062538;28;20960;-55
2022/01/18 04:29:12;;;;;;;0.20;0.10;;;;;;;6.08;100.00;102289.88;5060622;28;20469;-55
2022/01/18 04:31:39;;;;;;;0.20;0.10;;;;;;;6.07;100.00;102290.75;5061969;28;20876;-52
2022/01/18 04:34:06;;;;;;;0.20;0.10;;;;;;;6.07;100.00;102282.81;5067849;28;20537;-52
2022/01/18 04:36:33;;;;;;;2.67;1.60;;;;;;;6.09;100.00;102285.50;5067408;28;20503;-51
2022/01/18 04:39:00;;;;;;;0.20;0.10;;;;;;;6.04;100.00;102284.50;5060359;28;20490;-52
2022/01/18 04:41:29;;;;;;;0.20;0.20;;;;;;;6.08;100.00;102281.06;5061592;28;20508;-52
2022/01/18 04:49:14;;;;;;;0.20;0.10;;;;;;;6.09;100.00;102288.13;5064279;28;20462;-52
2022/01/18 04:51:44;;;;;;;0.20;0.10;;;;;;;6.15;100.00;102294.41;5060282;28;20454;-51
2022/01/18 04:54:12;;;;;;;0.20;0.10;;;;;;;6.12;100.00;102294.38;5063252;28;20453;-52
2022/01/18 04:59:07;;;;;;;0.47;0.47;;;;;;;6.15;100.00;102289.13;5065179;28;20987;-51
2022/01/18 05:01:37;;;;;;;0.20;0.10;;;;;;;6.17;100.00;102295.38;5060272;28;20453;-52
2022/01/18 05:04:04;;;;;;;0.20;0.13;;;;;;;6.12;100.00;102299.63;5061518;28;20451;-51
2022/01/18 05:06:30;;;;;;;0.20;0.20;;;;;;;6.12;100.00;102304.91;5067249;28;20483;-52
2022/01/18 05:09:00;;;;;;;0.20;0.17;;;;;;;6.08;100.00;102297.81;5051433;28;20885;-51
2022/01/18 05:11:31;;;;;;;0.20;0.20;;;;;;;6.06;100.00;102301.28;5059044;28;20970;-51
2022/01/18 05:19:10;;;;;;;0.20;0.17;;;;;;;5.92;100.00;102307.13;5059663;28;20490;-52
2022/01/18 05:24:26;;;;;;;0.20;0.13;;;;;;;5.97;100.00;102309.84;5067018;28;20451;-51
2022/01/18 05:26:54;;;;;;;0.30;0.20;;;;;;;6.03;100.00;102312.66;5066672;28;20442;-52
2022/01/18 05:29:22;;;;;;;0.20;0.17;;;;;;;6.05;100.00;102312.69;5060894;28;20470;-51
2022/01/18 05:31:48;;;;;;;0.20;0.20;;;;;;;6.10;100.00;102316.31;5059871;28;20512;-51
2022/01/18 05:34:16;;;;;;;0.20;0.20;;;;;;;6.09;100.00;102310.16;5065231;28;20451;-52
2022/01/18 05:36:43;;;;;;;2.00;1.90;;;;;;;6.21;100.00;102313.06;5066114;28;21033;-52
2022/01/18 05:39:10;;;;;;;0.20;0.10;;;;;;;6.15;100.00;102320.81;5060661;28;20502;-52
2022/01/18 05:41:39;;;;;;;0.20;0.10;;;;;;;6.12;100.00;102325.16;5059226;28;20457;-52
2022/01/18 05:44:07;;;;;;;0.20;0.20;;;;;;;6.10;100.00;102316.31;5064335;28;20500;-51
2022/01/18 05:46:35;;;;;;;1.17;1.07;;;;;;;6.06;100.00;102331.19;5066140;28;20951;-52
2022/01/18 05:49:03;;;;;;;1.80;1.80;;;;;;;6.02;100.00;102333.72;5061740;28;20466;-52
2022/01/18 05:51:32;;;;;;;0.20;0.20;;;;;;;6.05;100.00;102332.06;5059093;28;20447;-52
2022/01/18 05:53:58;;;;;;;0.20;0.10;;;;;;;6.01;100.00;102337.22;5063183;28;20932;-52
2022/01/18 05:56:29;;;;;;;0.30;0.20;;;;;;;5.98;100.00;102340.69;5066077;28;20447;-52
2022/01/18 05:58:59;;;;;;;0.80;0.80;;;;;;;5.86;100.00;102327.16;5062799;28;20494;-52
2022/01/18 06:01:31;;;;;;;0.20;0.20;;;;;;;5.97;100.00;102346.81;5059124;28;20456;-51
2022/01/18 06:09:12;;;;;;;0.20;0.20;;;;;;;6.12;100.00;102347.16;5049360;28;20533;-52
2022/01/18 06:11:40;;;;;;;0.20;0.10;;;;;;;6.12;100.00;102352.44;5060238;28;20452;-52
2022/01/18 06:14:07;;;;;;;0.20;0.17;;;;;;;6.11;100.00;102357.69;5057656;28;20451;-51
2022/01/18 06:16:34;;;;;;;0.20;0.20;;;;;;;6.13;100.00;102348.94;5061117;28;20478;-51
2022/01/18 06:19:00;;;;;;;0.20;0.10;;;;;;;6.13;100.00;102356.88;5058279;28;20540;-52
2022/01/18 06:21:28;;;;;;;0.20;0.10;;;;;;;6.15;100.00;102359.53;5063220;28;20463;-52
2022/01/18 06:23:54;;;;;;;0.80;0.80;;;;;;;6.11;100.00;102349.78;5065828;28;20454;-52
2022/01/18 06:26:21;;;;;;;0.20;0.10;;;;;;;6.06;100.00;102356.72;5061171;28;20503;-52
2022/01/18 06:28:47;;;;;;;0.83;0.77;;;;;;;6.07;100.00;102363.78;5058520;28;20890;-52
2022/01/18 06:31:17;;;;;;;0.20;0.10;;;;;;;6.08;100.00;102366.44;5062545;28;20825;-51
2022/01/18 06:33:44;;;;;;;0.20;0.10;;;;;;;6.10;100.00;102366.47;5065201;28;20457;-52
2022/01/18 06:36:11;;;;;;;0.20;0.10;;;;;;;6.08;100.00;102374.34;5062246;28;20540;-52
2022/01/18 06:38:38;;;;;;;0.20;0.20;;;;;;;6.08;100.00;102365.56;5058430;28;20465;-52
2022/01/18 06:41:05;;;;;;;0.20;0.10;;;;;;;6.03;100.00;102373.38;5062120;28;20496;-52
2022/01/18 06:43:31;;;;;;;0.20;0.17;;;;;;;6.09;100.00;102369.97;5065399;28;20509;-51
2022/01/18 06:45:59;;;;;;;0.20;0.20;;;;;;;6.09;100.00;102372.59;5062011;28;20450;-53
2022/01/18 06:48:26;;;;;;;0.20;0.20;;;;;;;6.09;100.00;102373.50;5058497;28;20577;-52
2022/01/18 06:50:52;;;;;;;0.20;0.10;;;;;;;6.13;100.00;102375.34;5061892;28;20841;-51
2022/01/18 06:53:19;;;;;;;1.27;1.27;;;;;;;6.16;100.00;102374.53;5065450;28;20498;-52
2022/01/18 06:55:53;;;;;;;0.37;0.37;;;;;;;6.15;100.00;102380.66;5062570;28;20454;-51
2022/01/18 06:58:22;;;;;;;0.30;0.20;;;;;;;6.19;100.00;102380.78;5058865;28;20543;-52
2022/01/18 07:00:49;;;;;;;0.20;0.10;;;;;;;6.17;100.00;102395.72;5059693;28;20522;-52
2022/01/18 07:03:17;;;;;;;0.20;0.20;;;;;;;6.19;100.00;102388.72;5065516;28;20451;-52
2022/01/18 07:05:44;;;;;;;0.20;0.20;;;;;;;6.06;100.00;102389.28;5064249;28;20446;-52
2022/01/18 07:08:14;;;;;;;0.40;0.40;;;;;;;6.10;100.00;102400.78;5055763;28;20453;-52
2022/01/18 07:10:41;;;;;;;0.20;0.20;;;;;;;6.22;100.00;102406.38;5057574;28;20442;-51
2022/01/18 07:13:09;;;;;;;0.20;0.20;;;;;;;6.03;100.00;102410.31;5058111;28;20515;-52
2022/01/18 07:15:36;;;;;;;0.20;0.10;;;;;;;6.13;100.00;102414.06;5058357;28;20512;-52
2022/01/18 07:18:05;;;;;;;0.20;0.20;;;;;;;6.16;100.00;102409.72;5064062;28;20817;-51
2022/01/18 07:20:33;;;;;;;0.20;0.10;;;;;;;6.20;100.00;102402.81;5065231;28;20489;-52
2022/01/18 07:23:00;;;;;;;5.20;1.13;;;;;;;6.17;100.00;102406.28;5059594;28;20489;-52
2022/01/18 07:25:27;;;;;;;0.20;0.10;;;;;;;6.16;100.00;102407.09;5058274;28;20534;-53
2022/01/18 07:27:54;;;;;;;0.20;0.20;;;;;;;6.06;100.00;102406.88;5062896;28;20451;-51
2022/01/18 07:30:21;;;;;;;0.20;0.20;;;;;;;5.98;100.00;102408.41;5065141;28;20599;-52
2022/01/18 07:32:47;;;;;;;0.20;0.10;;;;;;;6.13;100.00;102416.69;5060826;28;20454;-52
2022/01/18 07:35:14;;;;;;;0.20;0.17;;;;;;;6.16;100.00;102409.72;5058168;28;20454;-52
2022/01/18 07:37:41;;;;;;;1.13;0.70;;;;;;;6.17;100.00;102402.75;5062480;28;20509;-52
2022/01/18 07:40:09;;;;;;;0.20;0.20;;;;;;;6.12;100.00;102399.97;5060669;28;20557;-51
2022/01/18 07:42:35;;;;;;;0.20;0.20;;;;;;;6.18;100.00;102405.41;5055925;28;20503;-52
2022/01/18 07:45:03;;;;;;;0.20;0.13;;;;;;;6.28;100.00;102398.56;5061523;28;20858;-52
2022/01/18 07:47:30;;;;;;;0.20;0.10;;;;;;;6.28;100.00;102392.41;5065720;28;20446;-52
2022/01/18 07:49:56;;;;;;;0.27;0.20;;;;;;;6.30;100.00;102398.59;5068405;28;20474;-52
2022/01/18 07:52:23;;;;;;;0.20;0.10;;;;;;;6.34;100.00;102406.66;5064772;28;20480;-52
2022/01/18 07:54:50;;;;;;;0.20;0.10;;;;;;;6.40;100.00;102405.88;5061024;28;20480;-52
2022/01/18 07:57:21;;;;;;;0.20;0.20;;;;;;;6.44;100.00;102413.94;5064876;28;20824;-52
2022/01/18 07:59:48;;;;;;;0.40;0.40;;;;;;;6.46;100.00;102406.03;5067911;28;21007;-53
2022/01/18 08:02:15;;;;;;;0.20;0.10;;;;;;;6.43;100.00;102403.31;5054839;28;20874;-52
2022/01/18 08:04:42;;;;;;;0.30;0.20;;;;;;;6.48;100.00;102415.78;5068142;28;20451;-51
2022/01/18 08:07:08;;;;;;;0.20;0.10;;;;;;;6.50;100.00;102415.81;5065321;28;20977;-52
2022/01/18 08:09:36;;;;;;;0.20;0.10;;;;;;;6.45;100.00;102407.78;5061139;28;20515;-52
2022/01/18 08:12:07;;;;;;;0.20;0.10;;;;;;;6.49;100.00;102407.00;5063748;28;20482;-52
2022/01/18 08:14:35;;;;;;;0.20;0.10;;;;;;;6.50;100.00;102403.50;5067371;28;20927;-52
2022/01/18 08:17:06;;;;;;;0.20;0.20;;;;;;;6.59;100.00;102412.50;5066886;28;20508;-53
2022/01/18 08:19:35;;;;;;;0.20;0.10;;;;;;;6.50;100.00;102410.53;5060728;28;20858;-52
2022/01/18 08:22:07;;;;;;;0.20;0.20;;;;;;;6.50;100.00;102407.88;5060930;28;20454;-52
2022/01/18 08:24:33;;;;;;;0.83;0.80;;;;;;;6.54;100.00;102412.38;5066871;28;20451;-52
2022/01/18 08:27:00;;;;;;;1.60;1.07;;;;;;;6.59;100.00;102416.03;5067906;28;20454;-52
2022/01/18 08:29:27;;;;;;;0.20;0.20;;;;;;;6.61;100.00;102409.03;5062239;28;20508;-52
2022/01/18 08:32:15;;;;;;;1.03;1.03;;;;;;;6.73;100.00;102414.56;5060651;28;20518;-52
2022/01/18 08:34:42;;;;;;;0.20;0.20;;;;;;;6.83;100.00;102411.25;5063141;28;20500;-52
2022/01/18 08:37:09;;;;;;;0.30;0.20;;;;;;;6.77;100.00;102419.06;5067644;28;20512;-52
2022/01/18 08:39:35;;;;;;;0.30;0.10;;;;;;;6.80;100.00;102416.47;5065555;28;20543;-52
2022/01/18 08:42:02;;;;;;;0.20;0.20;;;;;;;6.80;100.00;102423.50;5060643;28;20449;-53
2022/01/18 08:44:30;;;;;;;0.20;0.20;;;;;;;6.84;100.00;102428.88;5062004;28;20461;-52
2022/01/18 08:46:56;;;;;;;0.20;0.20;;;;;;;6.88;100.00;102428.97;5067095;28;20940;-52
2022/01/18 08:49:23;;;;;;;0.20;0.20;;;;;;;6.85;100.00;102427.13;5066236;28;20488;-51
2022/01/18 08:51:50;;;;;;;0.50;0.50;;;;;;;6.79;100.00;102421.72;5060689;28;20498;-51
2022/01/18 08:54:16;;;;;;;0.30;0.20;;;;;;;6.80;100.00;102427.03;5061053;28;20867;-52
2022/01/18 08:56:43;;;;;;;0.30;0.30;;;;;;;6.91;100.00;102431.66;5067009;28;20450;-52
2022/01/18 08:59:35;;;;;;;0.20;0.10;;;;;;;6.94;100.00;102423.78;5066928;28;20520;-52
2022/01/18 09:02:06;;;;;;;3.70;1.50;;;;;;;6.96;100.00;102430.00;5063711;28;20504;-52
2022/01/18 09:04:34;;;;;;;0.20;0.20;;;;;;;7.00;100.00;102431.88;5060290;28;20449;-52
2022/01/18 09:07:08;;;;;;;0.20;0.20;;;;;;;7.03;100.00;102427.53;5062678;28;20861;-52
2022/01/18 09:09:41;;;;;;;0.30;0.30;;;;;;;6.94;100.00;102429.97;5052663;28;20839;-52
2022/01/18 09:12:11;;;;;;;0.20;0.20;;;;;;;7.06;100.00;102435.53;5066294;28;20468;-52
2022/01/18 09:14:38;;;;;;;0.30;0.30;;;;;;;7.06;100.00;102442.56;5066510;28;21008;-52
2022/01/18 09:17:05;;;;;;;0.20;0.20;;;;;;;7.05;100.00;102440.78;5066441;28;20528;-51
2022/01/18 09:19:32;;;;;;;0.20;0.10;;;;;;;7.11;100.00;102446.19;5059795;28;20462;-52
2022/01/18 09:22:00;;;;;;;0.20;0.20;;;;;;;7.17;100.00;102446.31;5059513;28;20478;-51
2022/01/18 09:24:27;;;;;;;0.20;0.10;;;;;;;7.20;100.00;102456.06;5046075;28;20445;-52
2022/01/18 09:26:53;;;;;;;1.27;1.27;;;;;;;7.31;100.00;102455.41;5059700;28;20504;-52
2022/01/18 09:29:20;;;;;;;0.80;0.80;;;;;;;7.28;100.00;102455.38;5065785;28;20470;-52
2022/01/18 09:31:48;;;;;;;0.30;0.20;;;;;;;7.25;100.00;102447.34;5066323;28;20890;-52
2022/01/18 09:34:15;;;;;;;0.20;0.10;;;;;;;7.32;100.00;102457.19;5060206;28;20454;-52
2022/01/18 09:36:43;;;;;;;0.30;0.20;;;;;;;7.25;100.00;102462.31;5059272;28;20474;-52
2022/01/18 09:39:09;;;;;;;0.20;0.17;;;;;;;7.34;100.00;102460.75;5062385;28;20470;-53
2022/01/18 09:41:40;;;;;;;0.20;0.10;;;;;;;7.31;100.00;102459.81;5066131;28;20489;-53
2022/01/18 09:44:08;;;;;;;0.50;0.50;;;;;;;7.30;100.00;102464.22;5061085;28;20453;-52
2022/01/18 09:46:34;;;;;;;0.30;0.20;;;;;;;7.37;100.00;102458.16;5059155;28;20948;-51
2022/01/18 09:49:01;;;;;;;0.20;0.20;;;;;;;7.43;100.00;102468.91;5064317;28;20471;-52
2022/01/18 09:51:31;;;;;;;0.20;0.20;;;;;;;7.47;100.00;102471.59;5065836;28;20878;-54
2022/01/18 09:53:58;;;;;;;0.30;0.30;;;;;;;7.51;100.00;102471.66;5060688;28;20932;-52
2022/01/18 09:56:30;;;;;;;0.20;0.20;;;;;;;7.51;100.00;102462.84;5059252;28;20437;-52
2022/01/18 09:58:57;;;;;;;0.30;0.10;;;;;;;7.55;100.00;102467.34;5062283;28;20480;-52
2022/01/18 10:01:25;;;;;;;0.20;0.20;;;;;;;7.67;100.00;102464.91;5065459;28;20487;-52
2022/01/18 10:04:11;;;;;;;2.50;1.47;;;;;;;7.76;100.00;102472.13;5062960;28;20450;-52
2022/01/18 10:06:39;;;;;;;0.30;0.30;;;;;;;7.70;100.00;102450.00;5045488;28;20868;-52
2022/01/18 10:09:10;;;;;;;0.20;0.20;;;;;;;7.81;100.00;102459.84;5059105;28;20475;-53
2022/01/18 10:11:37;;;;;;;0.30;0.20;;;;;;;7.79;100.00;102453.66;5047148;28;20477;-52
2022/01/18 10:14:18;;;;;;;0.30;0.20;;;;;;;7.65;100.00;102458.69;5058448;28;20560;-52
2022/01/18 10:16:45;;;;;;;0.27;0.20;;;;;;;7.76;100.00;102458.91;5062764;28;20450;-51
2022/01/18 10:19:13;;;;;;;0.30;0.20;;;;;;;7.72;100.00;102458.84;5058929;28;20539;-52
2022/01/18 10:21:47;;;;;;;1.93;1.87;;;;;;;7.78;100.00;102463.34;5061500;28;20560;-51
2022/01/18 10:24:16;;;;;;;0.30;0.20;;;;;;;7.77;100.00;102452.72;5065569;28;20494;-52
2022/01/18 10:26:45;;;;;;;0.50;0.50;;;;;;;7.96;100.00;102447.81;5064408;28;20478;-52
2022/01/18 10:29:13;;;;;;;0.30;0.20;;;;;;;7.88;100.00;102441.47;5058453;28;20868;-52
2022/01/18 10:32:12;;;;;;;0.20;0.20;;;;;;;7.90;100.00;102437.09;5060338;28;20449;-52
2022/01/18 10:37:07;;;;;;;2.60;1.13;;;;;;;8.05;100.00;102431.16;5058550;28;20456;-52
2022/01/18 10:39:51;;;;;;;0.30;0.20;;;;;;;8.03;100.00;102432.91;5057888;28;20521;-52
2022/01/18 10:42:23;;;;;;;0.30;0.20;;;;;;;7.97;100.00;102433.69;5065401;28;20512;-52
2022/01/18 10:45:05;;;;;;;0.30;0.23;;;;;;;8.13;100.00;102437.47;5065317;28;20445;-52
2022/01/18 10:47:33;;;;;;;0.30;0.20;;;;;;;8.14;100.00;102435.72;5061791;28;20507;-52
2022/01/18 10:50:15;;;;;;;0.30;0.20;;;;;;;8.19;100.00;102436.69;5058435;28;21355;-52
2022/01/18 10:52:42;;;;;;;0.20;0.20;;;;;;;8.43;100.00;102439.75;5059705;28;20451;-52
2022/01/18 10:55:24;;;;;;;0.30;0.20;;;;;;;8.34;100.00;102434.28;5065127;28;20451;-52
2022/01/18 10:57:51;;;;;;;0.30;0.17;;;;;;;8.61;100.00;102436.47;5065430;28;20442;-52
2022/01/18 11:00:25;;;;;;;0.30;0.20;;;;;;;8.63;100.00;102432.06;5060321;28;20903;-53
2022/01/18 11:02:54;;;;;;;1.70;0.73;;;;;;;8.45;100.00;102432.69;5058342;28;20452;-52
2022/01/18 11:05:30;;;;;;;0.30;0.20;;;;;;;8.56;100.00;102428.44;5062224;28;20447;-52
2022/01/18 11:08:03;;;;;;;0.30;0.20;;;;;;;8.59;100.00;102419.66;5065230;28;20442;-52
2022/01/18 11:10:40;;;;;;;0.30;0.20;;;;;;;8.46;100.00;102418.56;5063816;28;21017;-52
2022/01/18 11:13:34;;;;;;;0.30;0.20;;;;;;;8.82;100.00;102414.66;5064695;28;20948;-53
2022/01/18 11:16:02;;;;;;;0.30;0.20;;;;;;;8.49;100.00;102410.66;5059734;28;20438;-52
2022/01/18 11:18:31;;;;;;;0.30;0.20;;;;;;;8.51;100.00;102411.59;5064517;28;20486;-52
2022/01/18 11:21:01;;;;;;;0.30;0.20;;;;;;;8.54;100.00;102406.34;5068751;28;20536;-53
2022/01/18 11:23:33;;;;;;;0.30;0.20;;;;;;;8.73;100.00;102404.81;5067583;28;20498;-53
2022/01/18 11:26:01;;;;;;;0.30;0.20;;;;;;;8.67;100.00;102406.50;5062265;28;20449;-52
2022/01/18 11:28:29;;;;;;;0.30;0.20;;;;;;;8.85;100.00;102396.13;5062753;28;20474;-52
2022/01/18 11:30:57;;;;;;;0.30;0.20;;;;;;;8.82;100.00;102391.69;5068901;28;20451;-52
2022/01/18 11:33:27;;;;;;;0.30;0.20;;;;;;;8.81;100.00;102397.84;5068573;28;20446;-52
2022/01/18 11:36:12;;;;;;;0.30;0.20;;;;;;;8.64;100.00;102398.53;5069029;28;20492;-53
2022/01/18 11:38:56;;;;;;;0.67;0.67;;;;;;;8.62;100.00;102401.13;5064778;28;20541;-54
2022/01/18 11:41:29;;;;;;;0.30;0.20;;;;;;;8.93;100.00;102393.59;5067170;28;20493;-52
2022/01/18 11:43:59;;;;;;;0.30;0.20;;;;;;;8.69;100.00;102388.84;5061774;28;20465;-52
2022/01/18 11:46:27;;;;;;;0.30;0.20;;;;;;;8.74;100.00;102397.75;5061892;28;20459;-52
2022/01/18 11:49:04;;;;;;;0.30;0.20;;;;;;;8.73;100.00;102394.22;5048610;28;21006;-52
2022/01/18 11:51:44;;;;;;;0.30;0.20;;;;;;;8.77;100.00;102388.09;5061562;28;20488;-52
2022/01/18 11:54:26;;;;;;;0.30;0.20;;;;;;;8.76;100.00;102382.75;5064658;28;20936;-53
2022/01/18 11:56:53;;;;;;;0.30;0.20;;;;;;;8.97;100.00;102377.72;5068093;28;20508;-52
2022/01/18 11:59:22;;;;;;;0.30;0.20;;;;;;;8.77;100.00;102366.88;5067732;28;20523;-52
2022/01/18 12:01:51;;;;;;;0.30;0.20;;;;;;;8.67;100.00;102374.69;5061356;28;20481;-52
2022/01/18 12:04:37;;;;;;;0.30;0.20;;;;;;;8.68;100.00;102379.13;5061547;28;20932;-53
2022/01/18 12:07:04;;;;;;;0.30;0.20;;;;;;;8.64;100.00;102372.00;5064982;28;20435;-52
2022/01/18 12:09:43;;;;;;;0.30;0.20;;;;;;;8.71;100.00;102371.19;5050520;28;20544;-52
2022/01/18 12:12:41;;;;;;;0.30;0.30;;;;;;;8.83;99.04;102374.91;5065941;28;20514;-52
2022/01/18 12:15:22;;;;;;;0.30;0.20;;;;;;;8.71;100.00;102371.19;5064297;28;20454;-52
2022/01/18 12:18:22;;;;;;;0.30;0.20;;;;;;;8.66;100.00;102373.81;5067644;28;20516;-52
2022/01/18 12:20:55;;;;;;;0.30;0.20;;;;;;;8.72;100.00;102367.69;5065582;28;20502;-52
2022/01/18 12:23:24;;;;;;;0.30;0.20;;;;;;;8.73;99.92;102369.47;5065635;28;20446;-52
2022/01/18 12:26:58;;;;;;;0.30;0.20;;;;;;;8.57;99.36;102363.97;5060399;28;20524;-52
2022/01/18 12:34:33;;;;;;;0.30;0.20;;;;;;;8.54;99.86;102355.97;5049278;28;20450;-52
2022/01/18 12:37:06;;;;;;;0.30;0.20;;;;;;;8.60;99.79;102352.50;5060876;28;20465;-52
2022/01/18 12:39:55;;;;;;;0.30;0.20;;;;;;;8.55;99.93;102359.50;5061836;28;20548;-52
2022/01/18 12:45:14;;;;;;;0.30;0.20;;;;;;;8.47;100.00;102353.22;5060472;28;20441;-52
2022/01/18 12:47:42;;;;;;;0.30;0.20;;;;;;;8.57;100.00;102347.16;5062369;28;20944;-52
2022/01/18 12:50:11;;;;;;;0.40;0.40;;;;;;;8.48;100.00;102347.03;5067151;28;20548;-52
2022/01/18 12:52:55;;;;;;;0.30;0.20;;;;;;;8.45;100.00;102337.28;5065746;28;20939;-52
2022/01/18 12:55:24;;;;;;;0.30;0.20;;;;;;;8.58;100.00;102336.59;5065880;28;20976;-52
2022/01/18 12:58:02;;;;;;;0.30;0.20;;;;;;;8.45;100.00;102342.59;5066746;28;20947;-52
2022/01/18 13:00:29;;;;;;;0.30;0.20;;;;;;;8.53;100.00;102334.75;5063568;28;20441;-52
2022/01/18 13:02:58;;;;;;;0.30;0.20;;;;;;;8.52;100.00;102323.28;5060119;28;20896;-51
2022/01/18 13:05:37;;;;;;;0.30;0.20;;;;;;;8.68;100.00;102334.94;5062756;28;20446;-52